Time;durP1;ratioP1;P1;durP2;ratioP2;P2;SDS_P1;SDS_P2;PMS_P1;PMS_P2;Temp;Humidity;BMP_temperature;BMP_pressure;BME280_temperature;BME280_humidity;BME280_pressure;Samples;Min_cycle;Max_cycle;Signal;HPM_P1;HPM_P2
2023/12/19 00:01:13;;;;;;;0.40;0.40;;;;;;;4.55;60.84;98402.25;5021560;28;20107;-70
2023/12/19 00:03:43;;;;;;;0.35;0.35;;;;;;;4.51;60.98;98404.31;5025832;28;20037;-70
2023/12/19 00:06:10;;;;;;;0.30;0.30;;;;;;;4.45;61.44;98401.41;5023507;28;20041;-70
2023/12/19 00:08:38;;;;;;;0.20;0.20;;;;;;;4.43;61.76;98393.59;5023711;28;20041;-71
2023/12/19 00:11:05;;;;;;;0.20;0.20;;;;;;;4.37;61.83;98384.41;5020008;28;20033;-70
2023/12/19 00:13:33;;;;;;;0.30;0.30;;;;;;;4.40;61.82;98368.28;5020393;28;20485;-70
2023/12/19 00:16:03;;;;;;;0.22;0.22;;;;;;;4.45;61.77;98367.88;5018109;28;20128;-70
2023/12/19 00:18:31;;;;;;;0.30;0.30;;;;;;;4.49;61.78;98360.50;5017513;28;20389;-70
2023/12/19 00:21:01;;;;;;;0.32;0.32;;;;;;;4.50;61.75;98365.66;5021761;28;20053;-69
2023/12/19 00:23:32;;;;;;;0.30;0.30;;;;;;;4.54;61.74;98371.50;5026978;28;20122;-70
2023/12/19 00:25:59;;;;;;;0.25;0.25;;;;;;;4.55;61.59;98365.25;5022453;28;20069;-70
2023/12/19 00:28:27;;;;;;;0.20;0.20;;;;;;;4.58;61.44;98357.03;5026743;28;20045;-70
2023/12/19 00:30:55;;;;;;;0.30;0.30;;;;;;;4.62;61.17;98351.34;5019981;28;20120;-70
2023/12/19 00:33:23;;;;;;;0.55;0.55;;;;;;;4.66;61.18;98362.47;5027714;28;20447;-70
2023/12/19 00:35:51;;;;;;;0.20;0.20;;;;;;;4.67;61.03;98356.22;5026581;28;20068;-70
2023/12/19 00:38:20;;;;;;;0.20;0.20;;;;;;;4.66;61.31;98355.38;5030231;28;20064;-72
2023/12/19 00:40:48;;;;;;;0.50;0.50;;;;;;;4.69;61.26;98367.47;5026811;28;20484;-72
2023/12/19 00:43:16;;;;;;;0.22;0.22;;;;;;;4.75;60.97;98361.66;5027508;28;20053;-69
2023/12/19 00:45:43;;;;;;;0.30;0.30;;;;;;;4.69;61.24;98346.31;5024800;28;20516;-70
2023/12/19 00:48:11;;;;;;;0.30;0.30;;;;;;;4.67;61.29;98350.94;5029708;28;20504;-70
2023/12/19 00:50:39;;;;;;;0.30;0.30;;;;;;;4.72;61.01;98346.88;5006485;28;20528;-70
2023/12/19 00:53:06;;;;;;;0.63;0.63;;;;;;;4.80;60.77;98343.53;5019999;28;20060;-70
2023/12/19 00:55:35;;;;;;;0.35;0.35;;;;;;;4.78;60.78;98359.53;5025579;28;20050;-70
2023/12/19 00:58:03;;;;;;;0.30;0.30;;;;;;;4.83;60.53;98353.84;5027826;28;20050;-69
2023/12/19 01:00:31;;;;;;;0.30;0.30;;;;;;;4.82;60.47;98357.47;5022081;28;20123;-70
2023/12/19 01:02:58;;;;;;;0.30;0.30;;;;;;;4.79;60.26;98355.91;5026491;28;20472;-70
2023/12/19 01:05:26;;;;;;;0.20;0.20;;;;;;;4.83;60.51;98353.84;5030425;28;20225;-69
2023/12/19 01:07:53;;;;;;;0.32;0.32;;;;;;;4.84;60.19;98341.47;5020311;28;20049;-71
2023/12/19 01:10:21;;;;;;;0.20;0.20;;;;;;;4.84;59.98;98329.06;5026119;28;20049;-69
2023/12/19 01:12:50;;;;;;;0.22;0.22;;;;;;;4.85;60.00;98328.09;5022347;28;20103;-70
2023/12/19 01:15:18;;;;;;;0.25;0.25;;;;;;;4.89;59.61;98315.41;5030036;28;20068;-70
2023/12/19 01:17:46;;;;;;;0.40;0.40;;;;;;;4.92;59.52;98315.97;5017473;28;20416;-70
2023/12/19 01:20:14;;;;;;;0.20;0.20;;;;;;;4.96;59.35;98324.47;5027764;28;20052;-70
2023/12/19 01:22:41;;;;;;;0.30;0.30;;;;;;;4.98;59.03;98333.94;5028394;28;20460;-69
2023/12/19 01:25:09;;;;;;;0.45;0.45;;;;;;;5.02;58.82;98323.88;5005202;28;20111;-70
2023/12/19 01:27:37;;;;;;;0.20;0.20;;;;;;;5.02;58.95;98329.19;5028052;28;20075;-70
2023/12/19 01:30:07;;;;;;;0.20;0.20;;;;;;;4.99;58.79;98330.28;5027354;28;20559;-70
2023/12/19 01:32:35;;;;;;;0.30;0.30;;;;;;;4.99;58.90;98340.03;5028404;28;20033;-71
2023/12/19 01:35:03;;;;;;;0.30;0.30;;;;;;;4.98;58.90;98349.81;5021633;28;20184;-72
2023/12/19 01:37:31;;;;;;;0.30;0.30;;;;;;;4.98;58.88;98346.34;5004058;28;20065;-74
2023/12/19 01:39:58;;;;;;;0.20;0.20;;;;;;;4.98;58.91;98356.91;5027877;28;20046;-74
2023/12/19 01:42:26;;;;;;;0.30;0.30;;;;;;;4.95;59.06;98363.31;5021235;28;20034;-73
2023/12/19 01:45:10;;;;;;;0.20;0.20;;;;;;;4.98;58.85;98362.19;5027382;28;20053;-70
2023/12/19 01:47:39;;;;;;;0.25;0.25;;;;;;;4.99;59.07;98369.97;5027503;28;20120;-72
2023/12/19 01:50:08;;;;;;;0.30;0.30;;;;;;;4.91;59.13;98374.28;5026862;28;20124;-73
2023/12/19 01:52:36;;;;;;;0.30;0.30;;;;;;;4.93;59.27;98369.72;5022203;28;20087;-72
2023/12/19 01:55:04;;;;;;;0.40;0.40;;;;;;;4.86;59.35;98365.97;5032319;28;20068;-71
2023/12/19 01:57:32;;;;;;;0.32;0.32;;;;;;;4.82;59.62;98365.38;5029777;28;20045;-71
2023/12/19 02:00:00;;;;;;;0.20;0.20;;;;;;;4.78;59.18;98362.19;5027278;28;20077;-71
2023/12/19 02:02:32;;;;;;;0.13;0.13;;;;;;;4.83;59.34;98351.19;5027215;28;20048;-71
2023/12/19 02:05:00;;;;;;;0.28;0.28;;;;;;;4.84;58.98;98354.69;5007267;28;20133;-73
2023/12/19 02:07:27;;;;;;;0.35;0.35;;;;;;;4.80;59.26;98357.59;5015232;28;20049;-74
2023/12/19 02:09:55;;;;;;;0.30;0.30;;;;;;;4.85;58.78;98364.28;5022459;28;20551;-69
2023/12/19 02:12:23;;;;;;;0.40;0.40;;;;;;;4.84;58.77;98352.88;5021642;28;20061;-71
2023/12/19 02:14:51;;;;;;;0.17;0.17;;;;;;;4.80;58.78;98357.59;5022901;28;20049;-69
2023/12/19 02:17:19;;;;;;;0.32;0.32;;;;;;;4.86;58.80;98360.66;5025221;28;20046;-72
2023/12/19 02:19:49;;;;;;;0.40;0.40;;;;;;;4.83;58.64;98360.94;5028984;28;20045;-69
2023/12/19 02:22:16;;;;;;;0.40;0.40;;;;;;;4.79;58.66;98360.38;5024041;28;20046;-72
2023/12/19 02:24:45;;;;;;;0.30;0.30;;;;;;;4.77;59.08;98360.53;5026753;28;20041;-70
2023/12/19 02:27:14;;;;;;;0.30;0.30;;;;;;;4.77;59.07;98357.91;5026413;28;20092;-70
2023/12/19 02:29:41;;;;;;;0.30;0.30;;;;;;;4.78;58.85;98346.31;5027331;28;20076;-69
2023/12/19 02:32:09;;;;;;;0.30;0.30;;;;;;;4.74;58.80;98334.38;5023869;28;20476;-72
2023/12/19 02:34:37;;;;;;;0.30;0.30;;;;;;;4.72;59.14;98333.66;5023450;28;20129;-73
2023/12/19 02:37:05;;;;;;;0.20;0.20;;;;;;;4.68;58.83;98323.50;5025461;28;20053;-71
2023/12/19 02:39:32;;;;;;;0.30;0.30;;;;;;;4.69;58.73;98331.28;5028806;28;20057;-72
2023/12/19 02:42:01;;;;;;;0.30;0.30;;;;;;;4.63;59.04;98337.16;5018381;28;20057;-71
2023/12/19 02:44:29;;;;;;;0.30;0.30;;;;;;;4.61;58.98;98325.88;5023880;28;20079;-72
2023/12/19 02:46:56;;;;;;;0.38;0.38;;;;;;;4.54;59.10;98324.78;5009058;28;20049;-72
2023/12/19 02:49:24;;;;;;;0.35;0.35;;;;;;;4.54;59.41;98311.56;5028670;28;20484;-71
2023/12/19 02:51:52;;;;;;;0.32;0.32;;;;;;;4.46;59.72;98321.16;5020489;28;20053;-71
2023/12/19 02:54:20;;;;;;;0.20;0.20;;;;;;;4.40;59.86;98317.25;5019154;28;20489;-71
2023/12/19 02:56:47;;;;;;;0.28;0.28;;;;;;;4.39;59.81;98320.84;5024918;28;20053;-72
2023/12/19 02:59:16;;;;;;;0.20;0.20;;;;;;;4.31;60.22;98312.78;5017627;28;20443;-71
2023/12/19 03:01:46;;;;;;;0.30;0.30;;;;;;;4.31;60.15;98302.22;5015170;28;20042;-71
2023/12/19 03:04:14;;;;;;;0.32;0.32;;;;;;;4.29;60.14;98304.16;5025985;28;20428;-71
2023/12/19 03:06:42;;;;;;;0.30;0.30;;;;;;;4.34;59.87;98294.03;5027050;28;20045;-71
2023/12/19 03:09:10;;;;;;;0.20;0.20;;;;;;;4.35;59.68;98290.41;5027474;28;20045;-71
2023/12/19 03:11:38;;;;;;;0.20;0.20;;;;;;;4.31;59.60;98292.47;5023779;28;20045;-70
2023/12/19 03:14:06;;;;;;;0.35;0.35;;;;;;;4.33;59.67;98297.63;5012832;28;20060;-71
2023/12/19 03:16:35;;;;;;;0.20;0.20;;;;;;;4.30;59.59;98284.69;5010992;28;20140;-71
2023/12/19 03:19:02;;;;;;;0.35;0.35;;;;;;;4.26;59.88;98278.84;5026868;28;20093;-71
2023/12/19 03:21:30;;;;;;;0.10;0.10;;;;;;;4.22;59.95;98277.47;5018266;28;20343;-71
2023/12/19 03:23:58;;;;;;;0.20;0.20;;;;;;;4.17;60.21;98282.31;5026097;28;20041;-71
2023/12/19 03:26:25;;;;;;;0.32;0.32;;;;;;;4.15;60.32;98280.81;5021310;28;20145;-72
2023/12/19 03:28:53;;;;;;;0.22;0.22;;;;;;;4.13;60.45;98285.38;5022501;28;20060;-70
2023/12/19 03:31:21;;;;;;;0.20;0.20;;;;;;;4.10;60.57;98285.66;5026413;28;20424;-73
2023/12/19 03:33:51;;;;;;;0.20;0.20;;;;;;;4.06;60.85;98278.00;5022192;28;20049;-71
2023/12/19 03:36:19;;;;;;;0.20;0.20;;;;;;;4.03;60.88;98278.28;5022617;28;20456;-70
2023/12/19 03:38:47;;;;;;;0.30;0.30;;;;;;;4.02;60.92;98255.47;5023704;28;20084;-70
2023/12/19 03:41:14;;;;;;;0.20;0.20;;;;;;;3.97;61.27;98251.56;5025916;28;20121;-70
2023/12/19 03:43:42;;;;;;;0.20;0.20;;;;;;;3.92;61.56;98243.22;5021779;28;20405;-71
2023/12/19 03:46:10;;;;;;;0.20;0.20;;;;;;;3.87;61.71;98241.00;5022260;28;20047;-71
2023/12/19 03:48:38;;;;;;;0.20;0.20;;;;;;;3.86;61.58;98234.03;5023826;28;20068;-71
2023/12/19 03:51:07;;;;;;;0.30;0.30;;;;;;;3.82;62.01;98242.38;5018239;28;20052;-72
2023/12/19 03:53:35;;;;;;;0.20;0.20;;;;;;;3.80;62.08;98237.25;5021993;28;20038;-71
2023/12/19 03:56:03;;;;;;;0.38;0.38;;;;;;;3.79;62.01;98232.94;5017035;28;20072;-70
2023/12/19 03:58:30;;;;;;;0.30;0.30;;;;;;;3.81;61.86;98235.44;5021022;28;20390;-70
2023/12/19 04:00:58;;;;;;;0.30;0.30;;;;;;;3.79;61.87;98224.16;5022481;28;20045;-69
2023/12/19 04:03:26;;;;;;;0.20;0.20;;;;;;;3.77;61.77;98224.31;5029639;28;20059;-69
2023/12/19 04:05:54;;;;;;;0.30;0.30;;;;;;;3.79;61.88;98232.09;5023809;28;20052;-70
2023/12/19 04:08:23;;;;;;;0.22;0.22;;;;;;;3.79;61.71;98230.28;5023819;28;20057;-69
2023/12/19 04:10:50;;;;;;;0.20;0.20;;;;;;;3.82;61.79;98232.66;5011464;28;20045;-72
2023/12/19 04:13:18;;;;;;;0.22;0.22;;;;;;;3.84;61.61;98229.88;5015896;28;20465;-69
2023/12/19 04:15:45;;;;;;;0.20;0.20;;;;;;;3.75;61.91;98215.69;5022112;28;20064;-71
2023/12/19 04:18:14;;;;;;;0.20;0.20;;;;;;;3.76;61.73;98222.63;5027437;28;20045;-70
2023/12/19 04:20:42;;;;;;;0.35;0.35;;;;;;;3.80;61.67;98220.56;4995801;28;20056;-70
2023/12/19 04:23:10;;;;;;;0.20;0.20;;;;;;;3.73;61.88;98230.00;5017557;28;20037;-70
2023/12/19 04:25:39;;;;;;;0.45;0.45;;;;;;;3.71;61.99;98224.84;5014339;28;20526;-70
2023/12/19 04:28:06;;;;;;;0.50;0.50;;;;;;;3.74;61.86;98231.69;5024727;28;20134;-69
2023/12/19 04:30:34;;;;;;;0.30;0.30;;;;;;;3.73;61.81;98220.28;5020663;28;20417;-70
2023/12/19 04:33:02;;;;;;;0.40;0.40;;;;;;;3.69;61.93;98214.44;5019156;28;20496;-70
2023/12/19 04:35:30;;;;;;;0.20;0.20;;;;;;;3.67;61.81;98224.28;5018669;28;20042;-73
2023/12/19 04:37:58;;;;;;;0.30;0.30;;;;;;;3.65;61.99;98228.03;5020157;28;20046;-73
2023/12/19 04:40:25;;;;;;;0.20;0.20;;;;;;;3.61;62.20;98238.03;5019174;28;20116;-73
2023/12/19 04:42:54;;;;;;;0.40;0.40;;;;;;;3.55;62.50;98228.00;5019695;28;20050;-72
2023/12/19 04:45:22;;;;;;;0.20;0.20;;;;;;;3.49;62.91;98227.72;5024894;28;20388;-70
2023/12/19 04:47:49;;;;;;;0.35;0.35;;;;;;;3.45;63.26;98242.13;5023519;28;20100;-70
2023/12/19 04:50:17;;;;;;;1.02;0.70;;;;;;;3.41;63.73;98240.75;5024255;28;20050;-71
2023/12/19 04:52:45;;;;;;;0.32;0.32;;;;;;;3.45;63.35;98229.78;5028959;28;20128;-71
2023/12/19 04:55:12;;;;;;;0.30;0.30;;;;;;;3.41;63.46;98238.13;5029357;28;20405;-69
2023/12/19 04:57:40;;;;;;;0.30;0.30;;;;;;;3.43;63.33;98231.72;5024534;28;20095;-70
2023/12/19 05:00:10;;;;;;;0.20;0.20;;;;;;;3.45;63.39;98228.94;5030322;28;20041;-72
2023/12/19 05:02:38;;;;;;;0.20;0.20;;;;;;;3.48;63.31;98207.56;5029526;28;20087;-72
2023/12/19 05:05:06;;;;;;;0.40;0.40;;;;;;;3.55;63.02;98206.91;5027001;28;20080;-71
2023/12/19 05:07:34;;;;;;;0.45;0.45;;;;;;;3.61;63.19;98192.34;5033946;22;20152;-73
2023/12/19 05:10:02;;;;;;;0.30;0.30;;;;;;;3.57;62.88;98183.84;4997498;28;20053;-73
2023/12/19 05:12:32;;;;;;;0.30;0.30;;;;;;;3.57;62.61;98181.22;5000632;28;20047;-73
2023/12/19 05:15:00;;;;;;;0.30;0.30;;;;;;;3.62;62.75;98180.81;5005483;28;20459;-73
2023/12/19 05:17:29;;;;;;;0.35;0.35;;;;;;;3.57;63.01;98183.00;4996780;28;20409;-73
2023/12/19 05:19:56;;;;;;;0.30;0.30;;;;;;;3.57;63.25;98169.81;4997254;28;20078;-72
2023/12/19 05:22:25;;;;;;;0.20;0.20;;;;;;;3.59;63.16;98175.78;4991763;28;20041;-72
2023/12/19 05:24:53;;;;;;;0.20;0.20;;;;;;;3.58;63.42;98176.75;4994403;28;20043;-72
2023/12/19 05:27:21;;;;;;;0.20;0.20;;;;;;;3.52;63.69;98159.69;4993394;28;20046;-72
2023/12/19 05:29:49;;;;;;;0.20;0.20;;;;;;;3.51;63.89;98160.66;4999822;28;20382;-72
2023/12/19 05:32:17;;;;;;;0.30;0.30;;;;;;;3.47;64.11;98148.69;4993709;28;20038;-73
2023/12/19 05:34:46;;;;;;;0.30;0.30;;;;;;;3.41;64.34;98167.72;4994064;28;20073;-73
2023/12/19 05:37:13;;;;;;;0.30;0.30;;;;;;;3.41;64.54;98166.88;4991295;28;20042;-73
2023/12/19 05:39:42;;;;;;;0.40;0.40;;;;;;;3.39;64.59;98168.81;4989876;28;20049;-73
2023/12/19 05:42:09;;;;;;;0.30;0.30;;;;;;;3.42;64.61;98177.31;4987163;28;20042;-72
2023/12/19 05:44:37;;;;;;;0.38;0.38;;;;;;;3.40;64.54;98178.41;4993285;28;20042;-73
2023/12/19 05:47:05;;;;;;;0.30;0.30;;;;;;;3.36;64.80;98177.81;4993665;28;20084;-73
2023/12/19 05:49:32;;;;;;;0.40;0.40;;;;;;;3.33;65.03;98181.56;4996841;28;20057;-72
2023/12/19 05:52:01;;;;;;;0.30;0.30;;;;;;;3.31;65.14;98177.41;4992774;28;20051;-73
2023/12/19 05:54:29;;;;;;;0.10;0.10;;;;;;;3.35;64.93;98176.16;5003171;28;20046;-73
2023/12/19 05:56:57;;;;;;;0.20;0.20;;;;;;;3.37;64.95;98161.03;4998963;28;20564;-72
2023/12/19 05:59:24;;;;;;;0.30;0.30;;;;;;;3.36;65.06;98175.19;5002468;28;20121;-73
2023/12/19 06:01:52;;;;;;;0.30;0.30;;;;;;;3.39;64.95;98176.72;4995764;28;20117;-73
2023/12/19 06:04:19;;;;;;;0.20;0.20;;;;;;;3.38;65.05;98183.81;4994087;28;20046;-73
2023/12/19 06:06:46;;;;;;;0.40;0.40;;;;;;;3.41;65.43;98198.53;4997831;28;20058;-73
2023/12/19 06:09:15;;;;;;;0.32;0.32;;;;;;;3.40;65.27;98200.34;4995143;28;20382;-73
2023/12/19 06:11:43;;;;;;;0.28;0.28;;;;;;;3.42;64.96;98203.69;5004504;28;20045;-73
2023/12/19 06:14:10;;;;;;;0.30;0.30;;;;;;;3.47;64.91;98213.81;4995701;28;20073;-73
2023/12/19 06:16:38;;;;;;;0.57;0.57;;;;;;;3.47;64.92;98219.09;4996876;28;20490;-73
2023/12/19 06:19:06;;;;;;;0.30;0.30;;;;;;;3.44;65.13;98214.91;4992705;28;20042;-73
2023/12/19 06:21:34;;;;;;;0.25;0.25;;;;;;;3.49;65.06;98214.53;4992763;28;20046;-73
2023/12/19 06:24:01;;;;;;;0.38;0.38;;;;;;;3.45;65.09;98210.47;4992632;28;20126;-73
2023/12/19 06:26:30;;;;;;;0.43;0.43;;;;;;;3.43;65.22;98210.59;4991616;28;20049;-73
2023/12/19 06:28:59;;;;;;;0.38;0.38;;;;;;;3.42;65.21;98202.84;4994058;28;20677;-73
2023/12/19 06:31:27;;;;;;;0.30;0.30;;;;;;;3.41;65.36;98203.81;4988984;28;20061;-73
2023/12/19 06:33:55;;;;;;;0.20;0.20;;;;;;;3.40;65.48;98215.34;4989591;28;20046;-73
2023/12/19 06:36:31;;;;;;;0.50;0.50;;;;;;;3.39;65.62;98205.75;4997247;28;20132;-73
2023/12/19 06:38:58;;;;;;;0.25;0.25;;;;;;;3.43;65.53;98196.56;4992978;28;20116;-73
2023/12/19 06:41:26;;;;;;;0.30;0.30;;;;;;;3.36;65.81;98192.81;4993370;28;20485;-72
2023/12/19 06:43:55;;;;;;;0.30;0.30;;;;;;;3.33;66.16;98204.47;4993095;28;20504;-73
2023/12/19 06:46:23;;;;;;;0.25;0.25;;;;;;;3.35;66.15;98185.88;4993554;28;20039;-73
2023/12/19 06:48:51;;;;;;;0.50;0.50;;;;;;;3.33;66.33;98192.13;4990500;28;20054;-73
2023/12/19 06:51:25;;;;;;;0.30;0.30;;;;;;;3.30;66.55;98184.50;4992812;28;20426;-73
2023/12/19 06:53:54;;;;;;;0.30;0.30;;;;;;;3.26;66.81;98175.16;4992525;28;20074;-72
2023/12/19 06:56:26;;;;;;;0.40;0.40;;;;;;;3.29;66.92;98172.28;4993634;28;20439;-73
2023/12/19 06:58:56;;;;;;;0.20;0.20;;;;;;;3.32;66.60;98165.91;4992804;28;20084;-74
2023/12/19 07:01:24;;;;;;;0.20;0.20;;;;;;;3.32;66.43;98177.25;4993957;28;20046;-71
2023/12/19 07:03:52;;;;;;;0.30;0.30;;;;;;;3.39;66.28;98177.56;4995815;28;20466;-71
2023/12/19 07:06:20;;;;;;;0.40;0.40;;;;;;;3.41;66.27;98182.72;4995326;28;20121;-71
2023/12/19 07:08:47;;;;;;;0.40;0.40;;;;;;;3.40;66.35;98178.41;4991557;28;20052;-72
2023/12/19 07:11:16;;;;;;;0.40;0.40;;;;;;;3.41;66.47;98185.34;4992116;28;20513;-72
2023/12/19 07:13:44;;;;;;;0.30;0.30;;;;;;;3.40;66.44;98176.59;4991720;28;20497;-72
2023/12/19 07:16:17;;;;;;;0.40;0.40;;;;;;;3.47;66.37;98163.69;4994086;28;20050;-72
2023/12/19 07:18:45;;;;;;;0.30;0.30;;;;;;;3.42;66.51;98166.75;4991920;28;20038;-72
2023/12/19 07:21:21;;;;;;;0.60;0.60;;;;;;;3.45;66.62;98157.72;4994960;28;20429;-72
2023/12/19 07:23:48;;;;;;;0.30;0.30;;;;;;;3.48;66.61;98153.00;4992833;28;20125;-74
2023/12/19 07:26:23;;;;;;;0.38;0.38;;;;;;;3.47;66.67;98139.94;5001840;28;20492;-73
2023/12/19 07:28:51;;;;;;;0.20;0.20;;;;;;;3.46;66.74;98133.00;4997176;28;20064;-72
2023/12/19 07:31:22;;;;;;;0.40;0.40;;;;;;;3.50;66.61;98139.69;4992040;28;20125;-74
2023/12/19 07:33:51;;;;;;;0.40;0.40;;;;;;;3.55;66.47;98140.91;4991934;28;20081;-72
2023/12/19 07:36:19;;;;;;;0.40;0.40;;;;;;;3.55;66.49;98133.00;4987206;28;20130;-73
2023/12/19 07:38:46;;;;;;;0.30;0.30;;;;;;;3.60;66.47;98135.25;4991268;28;20050;-73
2023/12/19 07:41:14;;;;;;;0.38;0.38;;;;;;;3.61;66.45;98129.84;4991284;28;20056;-73
2023/12/19 07:43:45;;;;;;;0.28;0.28;;;;;;;3.63;66.52;98132.34;4991157;28;20061;-72
2023/12/19 07:46:13;;;;;;;0.30;0.30;;;;;;;3.61;66.53;98129.84;4987323;28;20046;-73
2023/12/19 07:48:42;;;;;;;0.20;0.20;;;;;;;3.65;66.63;98123.28;4995502;28;20053;-73
2023/12/19 07:51:15;;;;;;;0.30;0.30;;;;;;;3.66;66.65;98124.97;4992010;28;20047;-73
2023/12/19 07:53:43;;;;;;;0.38;0.38;;;;;;;3.69;66.10;98122.06;4991895;28;20045;-72
2023/12/19 07:56:11;;;;;;;0.30;0.30;;;;;;;3.68;66.06;98120.38;4992139;28;20053;-72
2023/12/19 07:58:38;;;;;;;0.47;0.47;;;;;;;3.70;66.10;98109.69;4991561;28;20410;-73
2023/12/19 08:01:06;;;;;;;0.35;0.35;;;;;;;3.74;65.82;98118.97;4991469;28;20086;-73
2023/12/19 08:03:34;;;;;;;0.40;0.40;;;;;;;3.75;65.83;98118.00;4991054;28;20045;-73
2023/12/19 08:06:03;;;;;;;0.40;0.40;;;;;;;3.77;65.78;98115.25;4989761;28;20170;-73
2023/12/19 08:08:34;;;;;;;0.20;0.20;;;;;;;3.79;65.59;98098.28;4986988;28;20047;-73
2023/12/19 08:11:02;;;;;;;0.40;0.40;;;;;;;3.77;65.79;98084.41;4990952;28;20217;-72
2023/12/19 08:13:29;;;;;;;0.20;0.20;;;;;;;3.77;65.88;98086.19;4990939;28;20410;-72
2023/12/19 08:15:57;;;;;;;0.20;0.20;;;;;;;3.85;65.33;98089.81;4989111;28;20034;-72
2023/12/19 08:18:25;;;;;;;0.40;0.40;;;;;;;3.90;65.05;98084.13;4990122;28;20505;-72
2023/12/19 08:20:52;;;;;;;0.30;0.30;;;;;;;3.91;65.20;98076.06;4990032;28;20445;-72
2023/12/19 08:23:21;;;;;;;0.30;0.30;;;;;;;3.96;65.08;98071.16;4995722;28;20233;-72
2023/12/19 08:25:50;;;;;;;0.32;0.32;;;;;;;4.02;64.70;98067.97;4985267;28;20047;-72
2023/12/19 08:28:17;;;;;;;0.20;0.20;;;;;;;4.02;64.61;98054.78;4982214;28;20042;-72
2023/12/19 08:30:45;;;;;;;0.40;0.40;;;;;;;4.02;64.33;98054.78;4989695;28;20510;-72
2023/12/19 08:33:13;;;;;;;0.30;0.30;;;;;;;4.07;64.27;98041.97;4989995;28;20784;-72
2023/12/19 08:35:40;;;;;;;0.20;0.20;;;;;;;4.08;64.06;98037.50;4987140;28;20102;-73
2023/12/19 08:38:08;;;;;;;0.30;0.30;;;;;;;4.16;63.94;98045.53;4987486;28;20522;-72
2023/12/19 08:40:37;;;;;;;0.30;0.30;;;;;;;4.17;63.60;98046.38;4991506;28;20034;-73
2023/12/19 08:43:05;;;;;;;0.20;0.20;;;;;;;4.21;63.35;98040.69;4990773;28;20045;-72
2023/12/19 08:45:33;;;;;;;0.30;0.30;;;;;;;4.33;63.26;98039.53;4990639;28;20084;-73
2023/12/19 08:48:01;;;;;;;0.32;0.32;;;;;;;4.36;62.88;98026.00;4988283;28;20517;-72
2023/12/19 08:50:28;;;;;;;0.30;0.30;;;;;;;4.35;62.87;98020.91;4990407;28;20493;-73
2023/12/19 08:52:56;;;;;;;0.20;0.20;;;;;;;4.34;62.73;98006.84;4991809;28;20080;-73
2023/12/19 08:55:23;;;;;;;0.30;0.30;;;;;;;4.42;62.46;98011.41;4993494;28;20493;-72
2023/12/19 08:57:52;;;;;;;0.20;0.20;;;;;;;4.46;62.43;98004.03;4997000;28;20045;-73
2023/12/19 09:00:21;;;;;;;0.30;0.30;;;;;;;4.47;62.13;97998.56;4989092;28;20049;-73
2023/12/19 09:02:49;;;;;;;0.35;0.35;;;;;;;4.47;62.13;98000.38;4993899;28;20048;-73
2023/12/19 09:05:18;;;;;;;0.40;0.40;;;;;;;4.54;61.99;97998.84;4989503;28;20055;-73
2023/12/19 09:07:47;;;;;;;0.22;0.22;;;;;;;4.61;61.80;98005.19;4995831;28;20065;-73
2023/12/19 09:10:16;;;;;;;0.20;0.20;;;;;;;4.63;61.22;98004.06;4994309;28;20136;-73
2023/12/19 09:12:44;;;;;;;0.30;0.30;;;;;;;4.70;61.14;98005.13;4990947;28;20122;-73
2023/12/19 09:15:14;;;;;;;0.35;0.35;;;;;;;4.77;60.94;97997.47;4989961;28;20412;-73
2023/12/19 09:17:41;;;;;;;0.20;0.20;;;;;;;4.86;60.57;97986.00;4993699;28;20053;-73
2023/12/19 09:20:11;;;;;;;0.30;0.30;;;;;;;4.98;60.29;98010.41;4996484;28;20187;-73
2023/12/19 09:22:40;;;;;;;0.32;0.32;;;;;;;5.08;59.53;97990.03;4995585;28;20049;-73
2023/12/19 09:25:14;;;;;;;0.47;0.47;;;;;;;5.19;59.38;97991.63;4992930;28;20429;-73
2023/12/19 09:27:43;;;;;;;0.20;0.20;;;;;;;5.26;59.28;97987.38;4992230;28;20104;-73
2023/12/19 09:30:14;;;;;;;0.20;0.20;;;;;;;5.32;58.76;97997.34;4995808;28;20045;-73
2023/12/19 09:32:43;;;;;;;0.20;0.20;;;;;;;5.40;58.86;97986.81;4993261;28;20046;-73
2023/12/19 09:35:11;;;;;;;0.10;0.10;;;;;;;5.45;58.30;97980.09;4993602;28;20042;-73
2023/12/19 09:37:39;;;;;;;0.35;0.35;;;;;;;5.48;58.10;98002.78;4990365;28;20362;-73
2023/12/19 09:40:13;;;;;;;0.30;0.30;;;;;;;5.52;57.39;98004.13;4995055;28;20498;-73
2023/12/19 09:42:40;;;;;;;0.32;0.32;;;;;;;5.60;57.64;97998.09;5000481;28;20104;-74
2023/12/19 09:45:09;;;;;;;0.22;0.22;;;;;;;5.59;57.05;97977.91;4992808;28;20046;-73
2023/12/19 09:47:40;;;;;;;0.32;0.32;;;;;;;5.67;57.54;97980.59;5008981;28;20509;-73
2023/12/19 09:50:12;;;;;;;0.30;0.30;;;;;;;5.70;57.26;97989.06;4992430;28;20046;-73
2023/12/19 09:52:41;;;;;;;0.30;0.30;;;;;;;5.66;57.01;97998.31;4992274;28;20529;-73
2023/12/19 09:55:11;;;;;;;0.35;0.35;;;;;;;5.69;56.86;97982.13;4990396;28;20042;-72
2023/12/19 09:57:40;;;;;;;0.40;0.40;;;;;;;5.75;56.21;97980.66;4993430;28;20090;-73
2023/12/19 10:00:11;;;;;;;0.32;0.30;;;;;;;5.77;55.96;97978.69;4991234;28;20505;-73
2023/12/19 10:02:41;;;;;;;0.30;0.30;;;;;;;5.89;55.54;97974.84;4993600;28;20047;-73
2023/12/19 10:05:09;;;;;;;0.32;0.32;;;;;;;5.98;54.71;97965.13;4990815;28;20038;-73
2023/12/19 10:07:37;;;;;;;0.45;0.45;;;;;;;6.10;53.75;97956.75;4989192;28;20046;-73
2023/12/19 10:10:07;;;;;;;0.22;0.22;;;;;;;6.18;54.07;97948.84;4991779;28;20054;-73
2023/12/19 10:12:48;;;;;;;0.30;0.30;;;;;;;6.15;53.49;97943.00;4990052;28;20060;-73
2023/12/19 10:15:21;;;;;;;0.30;0.30;;;;;;;6.17;54.03;97943.69;4991104;28;20045;-74
2023/12/19 10:18:04;;;;;;;0.32;0.32;;;;;;;6.17;54.37;97951.63;4992089;28;20125;-73
2023/12/19 10:20:33;;;;;;;0.30;0.30;;;;;;;6.14;54.24;97942.19;4992419;28;20085;-73
2023/12/19 10:23:04;;;;;;;0.22;0.22;;;;;;;6.07;54.22;97935.84;4997685;28;20046;-73
2023/12/19 10:25:32;;;;;;;0.20;0.20;;;;;;;6.07;54.63;97941.16;4996011;28;20402;-73
2023/12/19 10:28:12;;;;;;;0.22;0.22;;;;;;;6.05;54.61;97943.13;4989121;28;20153;-73
2023/12/19 10:30:40;;;;;;;0.30;0.30;;;;;;;6.00;54.98;97929.53;4992152;28;20034;-73
2023/12/19 10:33:10;;;;;;;0.40;0.40;;;;;;;6.02;55.11;97932.03;4992519;28;20134;-73
2023/12/19 10:35:38;;;;;;;0.10;0.10;;;;;;;6.06;55.24;97946.59;4992824;28;20092;-73
2023/12/19 10:38:06;;;;;;;0.35;0.35;;;;;;;6.12;55.05;97957.44;4996204;28;20046;-73
2023/12/19 10:40:37;;;;;;;0.20;0.20;;;;;;;6.16;54.73;97979.13;4991403;28;20124;-73
2023/12/19 10:43:05;;;;;;;0.38;0.38;;;;;;;6.20;54.67;97970.72;4991443;28;20068;-73
2023/12/19 10:45:34;;;;;;;0.32;0.32;;;;;;;6.23;54.99;97973.03;4992546;28;20057;-73
2023/12/19 10:48:01;;;;;;;0.30;0.30;;;;;;;6.20;54.89;97959.28;4983859;28;20042;-73
2023/12/19 10:50:30;;;;;;;0.20;0.20;;;;;;;6.19;55.42;97966.41;4984978;28;20046;-73
2023/12/19 10:53:01;;;;;;;0.28;0.28;;;;;;;6.14;55.59;97960.72;4985321;28;20157;-73
2023/12/19 10:55:34;;;;;;;0.70;0.40;;;;;;;6.14;56.02;97963.38;4987154;28;20490;-73
2023/12/19 10:58:03;;;;;;;0.30;0.30;;;;;;;6.19;56.29;97953.16;4979752;28;20073;-73
2023/12/19 11:00:33;;;;;;;0.22;0.22;;;;;;;6.21;56.21;97945.03;4991940;28;20513;-73
2023/12/19 11:03:07;;;;;;;0.30;0.30;;;;;;;6.17;56.54;97954.28;4991556;28;20057;-73
2023/12/19 11:05:41;;;;;;;0.20;0.20;;;;;;;6.15;57.09;97958.91;4992122;28;20088;-73
2023/12/19 11:08:12;;;;;;;0.20;0.20;;;;;;;6.03;57.10;97945.09;4991610;28;20138;-74
2023/12/19 11:10:40;;;;;;;0.30;0.30;;;;;;;6.00;57.97;97934.00;4990890;28;20340;-72
2023/12/19 11:13:10;;;;;;;0.40;0.40;;;;;;;5.99;58.04;97933.16;4989262;28;20054;-72
2023/12/19 11:15:42;;;;;;;0.30;0.30;;;;;;;5.95;58.56;97913.28;4986973;28;20109;-72
2023/12/19 11:18:15;;;;;;;0.30;0.30;;;;;;;5.92;59.17;97910.13;4990526;28;20042;-72
2023/12/19 11:20:46;;;;;;;;;;;;;;;5.91;59.60;97909.28;4994686;28;20042;-72
2023/12/19 11:23:20;;;;;;;0.40;0.40;;;;;;;5.87;60.20;97892.84;4988833;28;19929;-72
2023/12/19 11:25:54;;;;;;;0.20;0.20;;;;;;;5.87;60.24;97886.72;4988535;28;20049;-72
2023/12/19 11:28:21;;;;;;;0.35;0.35;;;;;;;5.88;60.32;97886.59;4992594;28;20100;-72
2023/12/19 11:30:49;;;;;;;0.40;0.40;;;;;;;5.85;60.63;97878.91;4990243;28;20034;-72
2023/12/19 11:33:28;;;;;;;0.20;0.20;;;;;;;5.78;61.25;97859.38;4992295;28;20042;-72
2023/12/19 11:36:10;;;;;;;0.32;0.32;;;;;;;5.74;61.81;97854.53;4989551;28;20544;-72
2023/12/19 11:38:38;;;;;;;0.10;0.10;;;;;;;5.78;61.85;97850.59;4981205;28;20133;-72
2023/12/19 11:41:05;;;;;;;0.35;0.35;;;;;;;5.85;62.07;97841.00;4983893;28;20051;-72
2023/12/19 11:43:53;;;;;;;0.20;0.20;;;;;;;5.83;62.29;97841.16;4988434;28;20074;-71
2023/12/19 11:46:21;;;;;;;0.22;0.22;;;;;;;5.81;62.73;97843.13;4989848;28;20035;-71
2023/12/19 11:48:50;;;;;;;0.22;0.22;;;;;;;5.74;63.28;97846.59;4989236;28;20091;-71